Terminal Aerodrome Forecast
Issued by NWS

Home | Current Version | Previous Version | Graphics & Text | Print | Product List | Glossary On
Versions: 1 2 3 4 5 6 7 8 9 10 11 12 13 14 15 16 17 18 19 20 21 22 23 24 25 26 27 28
000
FTUS45 KGGW 230523
TAFOLF
TAF
KOLF 230523Z 2306/2406 09005KT P6SM SCT010 OVC060
      TEMPO 2306/2309 1SM BR OVC008
     FM231500 06006KT P6SM SCT009 OVC020
     FM240200 06005KT P6SM SCT012 BKN030=

USA.gov is the U.S. government's official web portal to all federal, state and local government web resources and services.